Time;durP1;ratioP1;P1;durP2;ratioP2;P2;SDS_P1;SDS_P2;PMS_P1;PMS_P2;Temp;Humidity;BMP_temperature;BMP_pressure;BME280_temperature;BME280_humidity;BME280_pressure;Samples;Min_cycle;Max_cycle;Signal;HPM_P1;HPM_P2
2021/08/08 00:04:23;;;;;;;;;;;;;;;17.60;82.92;99280.16;10365801;28;20391;-51
2021/08/08 00:09:25;;;;;;;;;;;;;;;17.62;82.65;99286.16;10366834;28;19926;-47
2021/08/08 00:14:26;;;;;;;;;;;;;;;17.64;82.40;99290.31;10370308;28;20703;-50
2021/08/08 00:19:28;;;;;;;;;;;;;;;17.64;82.36;99287.63;10369827;28;20292;-48
2021/08/08 00:24:29;;;;;;;;;;;;;;;17.62;82.05;99278.91;10363280;28;19985;-48
2021/08/08 00:29:30;;;;;;;;;;;;;;;17.62;82.11;99284.28;10369857;28;19926;-47
2021/08/08 00:34:32;;;;;;;;;;;;;;;17.70;81.37;99298.63;10361351;28;19936;-50
2021/08/08 00:39:33;;;;;;;;;;;;;;;17.66;80.78;99300.91;10367014;28;20063;-50
2021/08/08 00:44:35;;;;;;;;;;;;;;;17.73;80.43;99296.41;10370384;28;20296;-49
2021/08/08 00:49:36;;;;;;;;;;;;;;;17.69;79.96;99302.38;10368548;28;19972;-50
2021/08/08 00:54:38;;;;;;;;;;;;;;;17.71;79.84;99295.75;10370081;28;19929;-48
2021/08/08 00:59:39;;;;;;;;;;;;;;;17.60;79.80;99312.44;10366932;28;19961;-49
2021/08/08 01:04:44;;;;;;;;;;;;;;;17.51;79.89;99314.41;10366632;28;20034;-48
2021/08/08 01:09:52;;;;;;;;;;;;;;;17.43;79.78;99311.81;10375092;28;19929;-49
2021/08/08 01:14:56;;;;;;;;;;;;;;;17.28;79.65;99323.47;10372505;28;22317;-50
2021/08/08 01:20:04;;;;;;;;;;;;;;;17.28;79.19;99336.94;10374610;28;19925;-49
2021/08/08 01:25:06;;;;;;;;;;;;;;;17.35;78.84;99330.78;10367726;28;19991;-49
2021/08/08 01:30:09;;;;;;;;;;;;;;;17.34;78.47;99331.81;10370372;28;19964;-49
2021/08/08 01:35:10;;;;;;;;;;;;;;;17.20;78.21;99339.72;10378727;28;20378;-46
2021/08/08 01:40:17;;;;;;;;;;;;;;;17.11;78.67;99346.22;10373541;28;20542;-47
2021/08/08 01:45:19;;;;;;;;;;;;;;;17.12;78.60;99347.91;10366846;28;19988;-47
2021/08/08 01:50:21;;;;;;;;;;;;;;;17.25;77.71;99352.59;10361253;28;19995;-48
2021/08/08 01:55:22;;;;;;;;;;;;;;;17.25;77.64;99363.34;10366808;28;19972;-48
2021/08/08 02:00:25;;;;;;;;;;;;;;;17.14;77.50;99361.97;10368985;28;20011;-48
2021/08/08 02:05:28;;;;;;;;;;;;;;;17.18;77.63;99370.53;10377301;28;19932;-48
2021/08/08 02:10:29;;;;;;;;;;;;;;;17.31;76.80;99373.38;10373470;28;20605;-48
2021/08/08 02:15:30;;;;;;;;;;;;;;;17.35;76.90;99369.28;10373023;28;19955;-50
2021/08/08 02:20:32;;;;;;;;;;;;;;;17.36;76.33;99372.81;10370117;28;20406;-48
2021/08/08 02:25:33;;;;;;;;;;;;;;;17.25;76.77;99374.09;10371146;28;20072;-51
2021/08/08 02:30:35;;;;;;;;;;;;;;;17.21;76.68;99384.41;10370309;28;19929;-48
2021/08/08 02:35:37;;;;;;;;;;;;;;;17.26;76.35;99392.78;10372092;28;19925;-47
2021/08/08 02:40:38;;;;;;;;;;;;;;;17.22;76.49;99396.00;10368124;28;19960;-51
2021/08/08 02:45:39;;;;;;;;;;;;;;;17.19;76.84;99396.38;10369006;28;20593;-50
2021/08/08 02:50:41;;;;;;;;;;;;;;;17.19;76.50;99407.13;10365787;28;19961;-49
2021/08/08 02:55:42;;;;;;;;;;;;;;;17.08;76.56;99409.31;10366012;28;20383;-47
2021/08/08 03:00:43;;;;;;;;;;;;;;;17.10;76.59;99415.31;10363738;28;19948;-51
2021/08/08 03:05:45;;;;;;;;;;;;;;;17.07;76.82;99430.97;10365224;28;20283;-48
2021/08/08 03:10:46;;;;;;;;;;;;;;;17.11;76.52;99426.91;10369545;28;19995;-50
2021/08/08 03:15:47;;;;;;;;;;;;;;;17.15;76.82;99422.81;10362862;28;20338;-49
2021/08/08 03:20:49;;;;;;;;;;;;;;;17.10;76.54;99431.44;10370417;28;19940;-50
2021/08/08 03:25:50;;;;;;;;;;;;;;;17.01;77.16;99454.06;10368785;28;19975;-48
2021/08/08 03:30:51;;;;;;;;;;;;;;;16.99;77.04;99460.66;10364765;28;19960;-51
2021/08/08 03:35:53;;;;;;;;;;;;;;;16.93;77.93;99463.06;10376554;28;19932;-47
2021/08/08 03:40:54;;;;;;;;;;;;;;;17.02;77.74;99476.41;10367356;28;20012;-50
2021/08/08 03:45:55;;;;;;;;;;;;;;;17.06;77.08;99477.72;10370276;28;20540;-48
2021/08/08 03:50:57;;;;;;;;;;;;;;;16.90;77.64;99479.56;10371335;28;19933;-51
2021/08/08 03:55:58;;;;;;;;;;;;;;;16.99;77.21;99482.16;10371969;28;19960;-47
2021/08/08 04:01:03;;;;;;;;;;;;;;;17.05;76.97;99497.53;10365367;28;19996;-49
2021/08/08 04:06:04;;;;;;;;;;;;;;;16.95;77.16;99493.28;10364299;28;19980;-49
2021/08/08 04:11:10;;;;;;;;;;;;;;;16.83;77.63;99493.84;10356973;28;19974;-49
2021/08/08 04:16:11;;;;;;;;;;;;;;;16.81;78.09;99494.03;10363924;28;20040;-46
2021/08/08 04:21:13;;;;;;;;;;;;;;;16.82;77.93;99503.78;10373351;28;20024;-50
2021/08/08 04:26:14;;;;;;;;;;;;;;;16.83;78.06;99502.78;10368879;28;20310;-46
2021/08/08 04:31:16;;;;;;;;;;;;;;;16.89;77.66;99504.75;10368526;28;19972;-50
2021/08/08 04:36:18;;;;;;;;;;;;;;;16.72;78.69;99503.19;10368202;28;19955;-58
2021/08/08 04:41:19;;;;;;;;;;;;;;;16.52;79.53;99508.25;10363425;28;20355;-55
2021/08/08 04:46:20;;;;;;;;;;;;;;;16.61;79.49;99516.06;10362425;28;19998;-55
2021/08/08 04:51:22;;;;;;;;;;;;;;;16.55;79.54;99521.31;10360679;28;19957;-55
2021/08/08 04:56:23;;;;;;;;;;;;;;;16.33;80.43;99531.03;10364852;28;19956;-55
2021/08/08 05:01:24;;;;;;;;;;;;;;;16.35;80.71;99539.75;10366907;28;20008;-55
2021/08/08 05:06:26;;;;;;;;;;;;;;;16.40;80.45;99542.75;10365301;28;19932;-55
2021/08/08 05:11:27;;;;;;;;;;;;;;;16.41;80.19;99550.63;10364026;28;19952;-56
2021/08/08 05:16:29;;;;;;;;;;;;;;;16.36;80.04;99541.44;10361286;28;19971;-55
2021/08/08 05:21:30;;;;;;;;;;;;;;;16.37;80.16;99549.31;10360939;28;19987;-55
2021/08/08 05:26:31;;;;;;;;;;;;;;;16.38;79.62;99548.31;10360206;28;19960;-55
2021/08/08 05:31:33;;;;;;;;;;;;;;;16.46;79.71;99557.31;10360036;28;20022;-55
2021/08/08 05:36:34;;;;;;;;;;;;;;;16.57;78.93;99565.81;10367302;28;20016;-55
2021/08/08 05:41:35;;;;;;;;;;;;;;;16.60;78.23;99576.19;10377591;28;19937;-56
2021/08/08 05:46:37;;;;;;;;;;;;;;;16.63;78.53;99579.53;10365886;28;20008;-55
2021/08/08 05:51:41;;;;;;;;;;;;;;;16.66;78.02;99579.16;10351351;28;20071;-60
2021/08/08 05:56:43;;;;;;;;;;;;;;;16.82;77.54;99584.41;10350656;28;19937;-55
2021/08/08 06:01:44;;;;;;;;;;;;;;;17.00;76.40;99591.38;10346294;28;20051;-55
2021/08/08 06:06:46;;;;;;;;;;;;;;;16.95;75.90;99598.13;10347631;28;19925;-56
2021/08/08 06:11:47;;;;;;;;;;;;;;;16.90;75.79;99596.97;10343743;28;20372;-55
2021/08/08 06:16:48;;;;;;;;;;;;;;;16.95;75.43;99602.66;10331173;28;19963;-62
2021/08/08 06:21:50;;;;;;;;;;;;;;;17.12;74.52;99627.56;10332229;28;20052;-54
2021/08/08 06:26:51;;;;;;;;;;;;;;;17.14;74.10;99625.50;10346648;28;20016;-55
2021/08/08 06:31:52;;;;;;;;;;;;;;;17.34;73.47;99620.47;10349266;28;19932;-55
2021/08/08 06:36:53;;;;;;;;;;;;;;;17.46;72.46;99628.94;10346785;28;20023;-56
2021/08/08 06:41:55;;;;;;;;;;;;;;;17.55;71.76;99617.06;10332184;28;20288;-55
2021/08/08 06:46:56;;;;;;;;;;;;;;;17.76;70.82;99628.91;10352774;28;20056;-56
2021/08/08 06:51:57;;;;;;;;;;;;;;;17.64;70.31;99631.25;10343249;28;19940;-56
2021/08/08 06:56:59;;;;;;;;;;;;;;;17.78;69.91;99637.66;10341854;28;20510;-61
2021/08/08 07:02:00;;;;;;;;;;;;;;;18.04;67.77;99649.84;10341787;28;19925;-56
2021/08/08 07:07:02;;;;;;;;;;;;;;;18.13;67.87;99656.81;10348474;28;19941;-56
2021/08/08 07:12:03;;;;;;;;;;;;;;;18.24;67.60;99674.34;10339297;28;20758;-56
2021/08/08 07:17:05;;;;;;;;;;;;;;;18.35;66.68;99663.91;10349212;28;20011;-56
2021/08/08 07:22:06;;;;;;;;;;;;;;;18.20;66.73;99669.31;10345404;28;20024;-56
2021/08/08 07:27:08;;;;;;;;;;;;;;;18.34;65.75;99643.38;10342921;28;19975;-56
2021/08/08 07:32:09;;;;;;;;;;;;;;;18.97;64.56;99669.81;10341347;28;19961;-57
2021/08/08 07:37:11;;;;;;;;;;;;;;;19.03;63.38;99679.00;10325759;28;19981;-57
2021/08/08 07:42:12;;;;;;;;;;;;;;;19.00;61.88;99690.16;10346256;28;19925;-56
2021/08/08 07:47:16;;;;;;;;;;;;;;;19.01;60.59;99687.28;10341229;28;20483;-56
2021/08/08 07:52:17;;;;;;;;;;;;;;;18.92;60.40;99691.13;10347916;28;20018;-56
2021/08/08 07:57:18;;;;;;;;;;;;;;;19.01;60.48;99676.50;10331170;28;20007;-56
2021/08/08 08:02:20;;;;;;;;;;;;;;;19.28;59.15;99684.81;10342644;28;19970;-57
2021/08/08 08:07:22;;;;;;;;;;;;;;;19.43;56.92;99698.25;10346596;28;19933;-57
2021/08/08 08:12:23;;;;;;;;;;;;;;;19.58;56.25;99698.16;10339295;28;20300;-56
2021/08/08 08:17:24;;;;;;;;;;;;;;;19.51;55.51;99697.25;10343781;28;19965;-56
2021/08/08 08:22:26;;;;;;;;;;;;;;;19.67;54.99;99699.66;10343213;28;20023;-56
2021/08/08 08:27:27;;;;;;;;;;;;;;;19.90;54.18;99706.72;10348379;28;19933;-56
2021/08/08 08:32:29;;;;;;;;;;;;;;;19.91;54.08;99703.00;10334833;28;19933;-57
2021/08/08 08:37:31;;;;;;;;;;;;;;;20.10;53.50;99715.78;10338188;28;20405;-57
2021/08/08 08:42:33;;;;;;;;;;;;;;;20.39;50.71;99721.13;10323905;28;20027;-56
2021/08/08 08:47:35;;;;;;;;;;;;;;;20.74;50.36;99727.31;10342876;28;20328;-57
2021/08/08 08:52:37;;;;;;;;;;;;;;;20.55;49.77;99723.50;10340023;28;20007;-57
2021/08/08 08:57:39;;;;;;;;;;;;;;;20.39;50.25;99731.94;10332709;28;20020;-57
2021/08/08 09:02:41;;;;;;;;;;;;;;;20.75;48.84;99734.41;10331326;28;20120;-56
2021/08/08 09:07:42;;;;;;;;;;;;;;;20.72;49.99;99732.09;10343886;28;19933;-56
2021/08/08 09:12:55;;;;;;;;;;;;;;;21.12;48.17;99731.38;10344887;28;19944;-57
2021/08/08 09:18:08;;;;;;;;;;;;;;;21.17;46.77;99735.13;10346274;28;20432;-57
2021/08/08 09:23:09;;;;;;;;;;;;;;;21.09;46.72;99750.72;10348048;28;21509;-57
2021/08/08 09:28:11;;;;;;;;;;;;;;;21.47;46.46;99750.19;10345711;28;20310;-57
2021/08/08 09:33:13;;;;;;;;;;;;;;;21.51;45.85;99755.00;10340136;28;20437;-57
2021/08/08 09:38:15;;;;;;;;;;;;;;;21.63;46.06;99759.78;10343235;28;20364;-57
2021/08/08 09:43:23;;;;;;;;;;;;;;;21.32;45.83;99758.47;10347788;28;19960;-57
2021/08/08 09:48:36;;;;;;;;;;;;;;;21.39;46.22;99758.47;10346407;28;20028;-56
2021/08/08 09:53:37;;;;;;;;;;;;;;;21.75;45.37;99749.97;10347437;28;19965;-56
2021/08/08 09:58:39;;;;;;;;;;;;;;;21.82;45.34;99769.78;10338787;28;19937;-57
2021/08/08 10:03:41;;;;;;;;;;;;;;;21.93;45.26;99748.50;10341071;28;20044;-59
2021/08/08 10:08:44;;;;;;;;;;;;;;;21.96;42.30;99757.03;10340509;28;20483;-57
2021/08/08 10:13:52;;;;;;;;;;;;;;;21.77;43.54;99756.03;10335963;28;19975;-57
2021/08/08 10:18:54;;;;;;;;;;;;;;;21.78;43.61;99765.00;10343560;28;19925;-57
2021/08/08 10:24:00;;;;;;;;;;;;;;;21.77;44.08;99749.75;10342545;28;20121;-56
2021/08/08 10:29:02;;;;;;;;;;;;;;;21.92;43.72;99769.38;10352712;28;20011;-57
2021/08/08 10:34:03;;;;;;;;;;;;;;;22.20;43.46;99777.25;10348674;28;20038;-57
2021/08/08 10:39:15;;;;;;;;;;;;;;;21.91;43.41;99775.00;10346704;28;19987;-56
2021/08/08 10:44:20;;;;;;;;;;;;;;;21.72;44.86;99769.34;10347683;28;20022;-56
2021/08/08 10:49:29;;;;;;;;;;;;;;;21.62;45.46;99780.63;10336423;28;20016;-56
2021/08/08 10:54:40;;;;;;;;;;;;;;;21.58;44.32;99767.69;10346374;28;20095;-56
2021/08/08 10:59:45;;;;;;;;;;;;;;;21.96;44.34;99767.06;10339109;28;20348;-57
2021/08/08 11:04:47;;;;;;;;;;;;;;;22.24;42.54;99773.06;10333028;28;20036;-57
2021/08/08 11:09:48;;;;;;;;;;;;;;;22.65;42.42;99768.38;10333424;28;19929;-57
2021/08/08 11:14:49;;;;;;;;;;;;;;;23.05;41.59;99767.38;10334212;28;19965;-57
2021/08/08 11:19:51;;;;;;;;;;;;;;;23.89;39.94;99767.25;10325048;28;20024;-60
2021/08/08 11:25:10;;;;;;;;;;;;;;;23.56;40.22;99769.16;10343147;28;20036;-57
2021/08/08 11:30:12;;;;;;;;;;;;;;;23.45;40.66;99765.25;10341376;28;19933;-58
2021/08/08 11:35:15;;;;;;;;;;;;;;;23.42;39.55;99770.28;10337124;28;20002;-57
2021/08/08 11:40:20;;;;;;;;;;;;;;;23.49;41.31;99773.78;10339731;28;19929;-58
2021/08/08 11:45:31;;;;;;;;;;;;;;;23.12;39.45;99785.31;10331669;28;20008;-56
2021/08/08 11:50:33;;;;;;;;;;;;;;;22.95;41.63;99784.09;10340159;28;19937;-56
2021/08/08 11:55:35;;;;;;;;;;;;;;;23.20;40.71;99784.22;10342955;28;20068;-57
2021/08/08 12:00:37;;;;;;;;;;;;;;;23.69;40.45;99781.81;10347564;28;20035;-58
2021/08/08 12:05:40;;;;;;;;;;;;;;;23.77;40.06;99786.13;10329927;28;19990;-57
2021/08/08 12:10:43;;;;;;;;;;;;;;;23.49;40.15;99798.22;10347747;28;19960;-57
2021/08/08 12:15:44;;;;;;;;;;;;;;;23.10;40.49;99798.28;10340803;28;20414;-57
2021/08/08 12:20:46;;;;;;;;;;;;;;;23.10;41.45;99802.84;10347223;28;20381;-60
2021/08/08 12:25:55;;;;;;;;;;;;;;;22.53;42.58;99798.06;10349443;28;20341;-57
2021/08/08 12:31:10;;;;;;;;;;;;;;;22.62;42.90;99798.63;10352126;28;19957;-59
2021/08/08 12:36:13;;;;;;;;;;;;;;;23.44;40.79;99787.22;10350391;28;19933;-57
2021/08/08 12:41:24;;;;;;;;;;;;;;;23.37;40.49;99805.44;10362908;28;20365;-56
2021/08/08 12:46:29;;;;;;;;;;;;;;;23.28;40.37;99789.41;10341551;28;19935;-56
2021/08/08 12:51:31;;;;;;;;;;;;;;;23.60;40.98;99783.97;10355796;28;20555;-56
2021/08/08 12:56:32;;;;;;;;;;;;;;;23.96;40.04;99784.31;10357738;28;19956;-57
2021/08/08 13:01:34;;;;;;;;;;;;;;;23.85;39.96;99796.75;10370811;28;20419;-55
2021/08/08 13:06:36;;;;;;;;;;;;;;;23.14;40.70;99787.81;10363049;28;19987;-55
2021/08/08 13:11:37;;;;;;;;;;;;;;;22.82;40.98;99800.44;10356351;28;19952;-55
2021/08/08 13:16:38;;;;;;;;;;;;;;;22.49;41.51;99802.25;10356214;28;20014;-55
2021/08/08 13:21:40;;;;;;;;;;;;;;;22.64;40.98;99823.69;10365038;28;20589;-55
2021/08/08 13:26:42;;;;;;;;;;;;;;;22.55;40.77;99814.13;10355388;28;19940;-57
2021/08/08 13:31:43;;;;;;;;;;;;;;;22.15;41.69;99806.84;10361875;28;20198;-56
2021/08/08 13:36:45;;;;;;;;;;;;;;;21.94;41.65;99831.47;10360934;28;19964;-56
2021/08/08 13:41:46;;;;;;;;;;;;;;;21.79;41.67;99840.63;10355180;28;20367;-55
2021/08/08 13:46:47;;;;;;;;;;;;;;;21.49;42.59;99878.03;10358983;28;20556;-55
2021/08/08 13:51:49;;;;;;;;;;;;;;;20.51;44.15;99924.97;10336963;28;19933;-55
2021/08/08 13:56:50;;;;;;;;;;;;;;;19.66;51.94;99961.75;10368565;28;19925;-55
2021/08/08 14:01:52;;;;;;;;;;;;;;;18.72;59.50;99985.56;10346104;28;22586;-56
2021/08/08 14:06:54;;;;;;;;;;;;;;;18.96;60.46;99954.03;10360509;28;20656;-56
2021/08/08 14:11:58;;;;;;;;;;;;;;;18.98;61.62;99903.41;10341722;28;19929;-55
2021/08/08 14:17:00;;;;;;;;;;;;;;;19.72;61.57;99894.31;10356545;28;20458;-56
2021/08/08 14:22:01;;;;;;;;;;;;;;;20.37;61.85;99893.47;10369945;28;19925;-55
2021/08/08 14:27:03;;;;;;;;;;;;;;;20.45;61.58;99904.97;10361052;28;19944;-56
2021/08/08 14:32:05;;;;;;;;;;;;;;;20.79;58.40;99895.25;10364923;28;19933;-56
2021/08/08 14:37:06;;;;;;;;;;;;;;;21.11;55.82;99909.13;10363961;28;20348;-56
2021/08/08 14:42:10;;;;;;;;;;;;;;;21.31;53.91;99919.22;10366494;28;20117;-56
2021/08/08 14:47:12;;;;;;;;;;;;;;;21.44;51.50;99918.41;10358656;28;20008;-55
2021/08/08 14:52:13;;;;;;;;;;;;;;;21.56;53.14;99910.56;10359688;28;19959;-56
2021/08/08 14:57:16;;;;;;;;;;;;;;;21.46;50.21;99916.34;10359438;28;20386;-57
2021/08/08 15:02:17;;;;;;;;;;;;;;;21.32;50.19;99926.31;10357837;28;20603;-56
2021/08/08 15:07:19;;;;;;;;;;;;;;;21.07;50.86;99939.50;10347721;28;20523;-57
2021/08/08 15:12:20;;;;;;;;;;;;;;;21.25;50.27;99944.38;10341448;28;19995;-57
2021/08/08 15:17:21;;;;;;;;;;;;;;;21.17;50.91;99957.03;10351706;28;19925;-56
2021/08/08 15:22:23;;;;;;;;;;;;;;;20.63;52.24;99946.91;10351480;28;19925;-56
2021/08/08 15:27:24;;;;;;;;;;;;;;;20.54;53.19;99950.78;10335358;28;20024;-60
2021/08/08 15:32:27;;;;;;;;;;;;;;;20.36;53.73;99954.81;10327709;28;24491;-56
2021/08/08 15:37:29;;;;;;;;;;;;;;;20.20;53.50;99957.78;10356981;28;19961;-56
2021/08/08 15:42:30;;;;;;;;;;;;;;;19.86;55.12;99964.69;10352102;28;19932;-55
2021/08/08 15:47:32;;;;;;;;;;;;;;;19.82;54.94;99985.03;10357806;28;20373;-56
2021/08/08 15:52:33;;;;;;;;;;;;;;;19.97;56.35;99977.72;10349366;28;20311;-56
2021/08/08 15:57:35;;;;;;;;;;;;;;;20.30;55.92;99944.78;10360508;28;19929;-56
2021/08/08 16:02:36;;;;;;;;;;;;;;;20.28;55.23;99952.22;10352496;28;19925;-53
2021/08/08 16:07:38;;;;;;;;;;;;;;;19.89;55.25;99958.91;10360519;28;20368;-54
2021/08/08 16:12:39;;;;;;;;;;;;;;;19.66;55.75;99959.88;10351007;28;19987;-56
2021/08/08 16:17:41;;;;;;;;;;;;;;;19.61;55.01;99956.94;10359781;28;20517;-55
2021/08/08 16:22:42;;;;;;;;;;;;;;;19.67;54.33;99969.66;10352067;28;20448;-56
2021/08/08 16:27:44;;;;;;;;;;;;;;;19.67;53.20;99977.75;10350340;28;19937;-56
2021/08/08 16:32:45;;;;;;;;;;;;;;;19.63;52.83;99976.47;10353059;28;19925;-56
2021/08/08 16:37:47;;;;;;;;;;;;;;;19.68;52.60;99968.66;10369817;28;20554;-56
2021/08/08 16:42:49;;;;;;;;;;;;;;;19.61;52.77;99970.44;10350182;28;20012;-56
2021/08/08 16:47:51;;;;;;;;;;;;;;;19.54;52.72;99977.59;10351271;28;19979;-56
2021/08/08 16:52:52;;;;;;;;;;;;;;;19.45;53.45;99984.97;10350069;28;19952;-55
2021/08/08 16:57:54;;;;;;;;;;;;;;;19.43;53.63;99981.63;10333211;28;19925;-56
2021/08/08 17:02:55;;;;;;;;;;;;;;;19.36;53.92;99986.91;10346619;28;20012;-55
2021/08/08 17:07:59;;;;;;;;;;;;;;;19.37;54.25;99988.59;10356402;28;20407;-55
2021/08/08 17:13:00;;;;;;;;;;;;;;;19.43;54.48;100001.34;10350989;28;19999;-55
2021/08/08 17:18:02;;;;;;;;;;;;;;;19.40;54.42;100007.13;10358576;28;20506;-55
2021/08/08 17:23:03;;;;;;;;;;;;;;;19.43;54.18;100006.75;10361041;28;19940;-56
2021/08/08 17:28:05;;;;;;;;;;;;;;;19.42;51.99;100018.56;10350588;28;20426;-55
2021/08/08 17:33:06;;;;;;;;;;;;;;;19.46;50.36;100015.50;10364586;28;19925;-56
2021/08/08 17:38:07;;;;;;;;;;;;;;;19.44;50.38;100015.66;10371499;28;19992;-58
2021/08/08 17:43:09;;;;;;;;;;;;;;;19.46;50.69;100023.59;10355767;28;20100;-56
2021/08/08 17:48:14;;;;;;;;;;;;;;;19.48;50.82;100029.66;10338802;28;19976;-55
2021/08/08 17:53:16;;;;;;;;;;;;;;;19.43;51.20;100025.63;10355902;28;20297;-55
2021/08/08 17:58:17;;;;;;;;;;;;;;;19.38;51.19;100027.22;10369545;28;20418;-58
2021/08/08 18:03:18;;;;;;;;;;;;;;;19.36;52.15;100030.09;10364714;28;19925;-56
2021/08/08 18:08:20;;;;;;;;;;;;;;;19.34;52.38;100021.38;10358640;28;20114;-56
2021/08/08 18:13:22;;;;;;;;;;;;;;;19.30;52.55;100024.63;10361995;28;20592;-55
2021/08/08 18:18:23;;;;;;;;;;;;;;;19.27;52.81;100025.00;10363134;28;19925;-56
2021/08/08 18:23:24;;;;;;;;;;;;;;;19.20;52.99;100031.13;10361347;28;20015;-56
2021/08/08 18:28:26;;;;;;;;;;;;;;;19.13;53.54;100035.59;10355026;28;19925;-55
2021/08/08 18:33:27;;;;;;;;;;;;;;;19.05;53.55;100038.34;10368367;28;20298;-56
2021/08/08 18:38:28;;;;;;;;;;;;;;;18.98;54.01;100046.38;10360782;28;19968;-56
2021/08/08 18:43:30;;;;;;;;;;;;;;;18.94;54.64;100053.13;10353302;28;20019;-56
2021/08/08 18:48:32;;;;;;;;;;;;;;;18.90;54.74;100051.84;10360014;28;20414;-56
2021/08/08 18:53:34;;;;;;;;;;;;;;;18.81;55.39;100074.47;10353237;28;20513;-56
2021/08/08 18:58:35;;;;;;;;;;;;;;;18.72;56.21;100079.09;10356341;28;19929;-56
2021/08/08 19:03:36;;;;;;;;;;;;;;;18.60;57.17;100078.69;10361890;28;20024;-55
2021/08/08 19:08:38;;;;;;;;;;;;;;;18.52;57.77;100093.03;10355319;28;20024;-58
2021/08/08 19:13:39;;;;;;;;;;;;;;;18.48;58.10;100091.75;10363960;28;20390;-56
2021/08/08 19:18:40;;;;;;;;;;;;;;;18.38;58.23;100094.66;10382049;28;19961;-56
2021/08/08 19:23:42;;;;;;;;;;;;;;;18.39;58.87;100098.22;10350571;28;19957;-56
2021/08/08 19:28:44;;;;;;;;;;;;;;;18.34;59.04;100112.19;10343142;28;19995;-56
2021/08/08 19:33:45;;;;;;;;;;;;;;;18.26;59.32;100111.41;10354116;28;20028;-56
2021/08/08 19:38:47;;;;;;;;;;;;;;;18.17;59.80;100113.31;10345452;28;20063;-56
2021/08/08 19:43:48;;;;;;;;;;;;;;;18.14;60.07;100117.19;10350565;28;20068;-56
2021/08/08 19:48:49;;;;;;;;;;;;;;;18.07;60.67;100118.06;10362409;28;20008;-55
2021/08/08 19:53:51;;;;;;;;;;;;;;;17.98;60.96;100128.88;10367634;28;19929;-56
2021/08/08 19:58:52;;;;;;;;;;;;;;;17.92;61.17;100132.25;10374689;28;20420;-56
2021/08/08 20:03:54;;;;;;;;;;;;;;;17.88;61.62;100141.69;10372678;28;19966;-56
2021/08/08 20:08:55;;;;;;;;;;;;;;;17.84;61.94;100145.75;10357291;28;19929;-56
2021/08/08 20:13:56;;;;;;;;;;;;;;;17.82;62.27;100153.16;10369212;28;19929;-56
2021/08/08 20:18:59;;;;;;;;;;;;;;;17.79;62.85;100157.03;10366113;28;20378;-56
2021/08/08 20:24:00;;;;;;;;;;;;;;;17.80;63.49;100165.94;10362244;28;20008;-56
2021/08/08 20:29:02;;;;;;;;;;;;;;;17.78;63.81;100165.28;10365856;28;19929;-61
2021/08/08 20:34:03;;;;;;;;;;;;;;;17.76;63.96;100167.28;10363596;28;20559;-55
2021/08/08 20:39:05;;;;;;;;;;;;;;;17.72;64.26;100172.19;10369352;28;19925;-56
2021/08/08 20:44:07;;;;;;;;;;;;;;;17.66;64.29;100167.50;10372758;28;20023;-56
2021/08/08 20:49:09;;;;;;;;;;;;;;;17.67;64.73;100175.41;10371700;28;20008;-55
2021/08/08 20:54:10;;;;;;;;;;;;;;;17.72;64.65;100179.44;10360310;28;19933;-56
2021/08/08 20:59:12;;;;;;;;;;;;;;;17.73;64.82;100189.16;10372481;28;19981;-56
2021/08/08 21:04:13;;;;;;;;;;;;;;;17.69;65.04;100190.53;10359478;28;19965;-56
2021/08/08 21:09:15;;;;;;;;;;;;;;;17.67;65.29;100204.19;10372433;28;20027;-55
2021/08/08 21:14:16;;;;;;;;;;;;;;;17.44;65.40;100182.50;10375897;28;20015;-56
2021/08/08 21:19:18;;;;;;;;;;;;;;;17.52;65.73;100204.03;10368448;28;19926;-55
2021/08/08 21:24:19;;;;;;;;;;;;;;;17.37;66.18;100208.38;10368281;28;20387;-58
2021/08/08 21:29:21;;;;;;;;;;;;;;;17.22;66.88;100206.41;10375928;28;20016;-54
2021/08/08 21:34:22;;;;;;;;;;;;;;;17.20;67.07;100216.47;10368236;28;19925;-55
2021/08/08 21:39:24;;;;;;;;;;;;;;;17.08;67.63;100217.81;10371941;28;20327;-55
2021/08/08 21:44:25;;;;;;;;;;;;;;;16.99;68.17;100221.50;10369625;28;20075;-56
2021/08/08 21:49:26;;;;;;;;;;;;;;;16.95;68.56;100229.91;10371382;28;20022;-55
2021/08/08 21:54:28;;;;;;;;;;;;;;;16.88;68.57;100234.25;10372132;28;20013;-55
2021/08/08 21:59:29;;;;;;;;;;;;;;;16.87;68.63;100235.25;10380462;28;19956;-55
2021/08/08 22:04:30;;;;;;;;;;;;;;;16.94;68.48;100227.38;10365495;28;19979;-56
2021/08/08 22:09:32;;;;;;;;;;;;;;;16.84;68.88;100234.72;10356860;28;19976;-55
2021/08/08 22:14:33;;;;;;;;;;;;;;;16.73;69.47;100233.19;10363656;28;19980;-55
2021/08/08 22:19:34;;;;;;;;;;;;;;;16.73;69.39;100236.69;10353871;28;20295;-55
2021/08/08 22:24:35;;;;;;;;;;;;;;;16.70;69.28;100241.56;10365648;28;20042;-57
2021/08/08 22:29:37;;;;;;;;;;;;;;;16.68;69.70;100246.25;10369072;28;20317;-56
2021/08/08 22:34:38;;;;;;;;;;;;;;;16.67;69.71;100239.22;10370525;28;20418;-57
2021/08/08 22:39:40;;;;;;;;;;;;;;;16.61;70.01;100244.22;10353488;28;19999;-58
2021/08/08 22:44:41;;;;;;;;;;;;;;;16.63;70.00;100245.91;10366129;28;20018;-56
2021/08/08 22:49:43;;;;;;;;;;;;;;;16.57;70.17;100252.78;10364445;28;20028;-57
2021/08/08 22:54:46;;;;;;;;;;;;;;;16.61;70.01;100254.13;10365728;28;25049;-54
2021/08/08 22:59:47;;;;;;;;;;;;;;;16.60;69.73;100256.00;10373063;28;19964;-54
2021/08/08 23:04:48;;;;;;;;;;;;;;;16.53;69.92;100260.34;10359023;28;20021;-55
2021/08/08 23:09:50;;;;;;;;;;;;;;;16.48;69.97;100254.59;10361484;28;20321;-55
2021/08/08 23:14:51;;;;;;;;;;;;;;;16.54;69.86;100255.78;10369619;28;19973;-56
2021/08/08 23:19:52;;;;;;;;;;;;;;;16.60;69.74;100264.06;10379082;28;20042;-55
2021/08/08 23:24:54;;;;;;;;;;;;;;;16.58;69.83;100258.00;10372875;28;20020;-56
2021/08/08 23:29:55;;;;;;;;;;;;;;;16.52;69.89;100260.50;10366508;28;19979;-56
2021/08/08 23:34:57;;;;;;;;;;;;;;;16.55;69.54;100265.53;10368185;28;20024;-56
2021/08/08 23:39:58;;;;;;;;;;;;;;;16.49;69.70;100267.03;10372967;28;20510;-56
2021/08/08 23:44:59;;;;;;;;;;;;;;;16.36;70.13;100261.25;10365152;28;20121;-57
2021/08/08 23:50:01;;;;;;;;;;;;;;;16.39;69.98;100255.56;10367461;28;20515;-57
2021/08/08 23:55:02;;;;;;;;;;;;;;;16.42;69.83;100256.09;10363889;28;20019;-56
